Time;durP1;ratioP1;P1;durP2;ratioP2;P2;SDS_P1;SDS_P2;PMS_P1;PMS_P2;Temp;Humidity;BMP_temperature;BMP_pressure;BME280_temperature;BME280_humidity;BME280_pressure;Samples;Min_cycle;Max_cycle;Signal;HPM_P1;HPM_P2
2022/04/26 03:36:36;;;;;;;18.43;12.87;;;6.90;99.90;;;;;;5075463;28;20379;-79
2022/04/26 03:39:03;;;;;;;21.67;12.30;;;7.00;99.90;;;;;;5075146;28;20572;-80
2022/04/26 03:41:29;;;;;;;16.95;12.07;;;7.00;99.90;;;;;;5076686;28;20715;-80
2022/04/26 03:43:56;;;;;;;18.05;11.88;;;7.00;99.90;;;;;;5075217;28;20227;-78
2022/04/26 03:46:23;;;;;;;15.10;11.85;;;7.00;99.90;;;;;;5055783;28;20220;-78
2022/04/26 03:48:49;;;;;;;18.73;13.10;;;7.00;99.90;;;;;;5076268;28;20315;-79
2022/04/26 03:51:17;;;;;;;18.35;12.98;;;7.00;99.90;;;;;;5075880;28;20239;-79
2022/04/26 03:53:44;;;;;;;16.42;12.93;;;7.00;99.90;;;;;;5074533;28;20289;-78
2022/04/26 03:56:10;;;;;;;18.27;12.60;;;7.00;99.90;;;;;;5074510;28;20212;-79
2022/04/26 03:58:37;;;;;;;21.38;14.35;;;6.70;99.90;;;;;;5073155;28;20517;-78
2022/04/26 04:01:03;;;;;;;24.03;13.07;;;7.00;99.90;;;;;;5075192;28;20235;-79
2022/04/26 04:03:30;;;;;;;18.03;12.77;;;7.10;99.90;;;;;;5074775;28;20517;-79
2022/04/26 04:05:57;;;;;;;20.05;13.30;;;7.00;99.90;;;;;;5075234;28;20457;-78
2022/04/26 04:08:25;;;;;;;18.88;11.27;;;6.90;99.90;;;;;;5075478;28;20277;-79
2022/04/26 04:10:51;;;;;;;31.30;14.75;;;7.00;99.90;;;;;;5075334;28;20236;-78
2022/04/26 04:13:18;;;;;;;24.98;15.32;;;7.10;99.90;;;;;;5074945;28;20658;-78
2022/04/26 04:15:46;;;;;;;18.27;12.52;;;7.00;99.90;;;;;;5076376;28;20205;-81
2022/04/26 04:20:53;;;;;;;19.58;13.15;;;7.20;99.90;;;;;;5077637;28;20204;-80
2022/04/26 04:23:20;;;;;;;18.98;10.93;;;7.20;77.60;;;;;;5078583;28;20203;-79
2022/04/26 04:25:48;;;;;;;19.52;11.95;;;7.20;57.30;;;;;;5079054;28;20210;-80
2022/04/26 04:28:15;;;;;;;18.65;11.10;;;7.20;37.10;;;;;;5079192;28;20556;-79
2022/04/26 04:30:42;;;;;;;20.23;11.82;;;7.20;29.80;;;;;;5084387;28;20213;-79
2022/04/26 04:33:09;;;;;;;20.27;10.60;;;7.30;24.00;;;;;;5091584;28;20232;-77
2022/04/26 04:35:37;;;;;;;19.77;11.93;;;7.30;1.00;;;;;;5089777;28;20219;-79
2022/04/26 04:38:03;;;;;;;18.88;12.27;;;7.30;12.30;;;;;;5087057;28;20427;-79
2022/04/26 04:40:30;;;;;;;17.50;11.15;;;7.30;1.00;;;;;;5092526;22;20230;-82
2022/04/26 04:42:58;;;;;;;14.82;10.75;;;7.30;1.00;;;;;;5059912;28;20266;-81
2022/04/26 04:45:25;;;;;;;24.23;11.70;;;7.30;1.00;;;;;;5060490;28;20280;-82
2022/04/26 04:47:51;;;;;;;19.90;11.43;;;7.40;1.00;;;;;;5060085;28;20945;-81
2022/04/26 04:50:18;;;;;;;17.10;10.98;;;7.40;1.00;;;;;;5060331;28;20255;-81
2022/04/26 04:52:45;;;;;;;16.20;11.10;;;7.50;1.00;;;;;;5060653;28;20719;-81
2022/04/26 04:55:15;;;;;;;13.93;10.30;;;7.40;1.00;;;;;;5061502;28;20228;-81
2022/04/26 04:57:42;;;;;;;18.90;11.17;;;7.50;1.00;;;;;;5062212;28;20203;-82
2022/04/26 05:00:11;;;;;;;18.33;10.80;;;7.50;1.00;;;;;;5060527;28;20552;-80
2022/04/26 05:02:37;;;;;;;16.88;11.30;;;7.60;1.00;;;;;;5060919;28;20955;-81
2022/04/26 05:05:05;;;;;;;15.87;11.00;;;7.60;1.00;;;;;;5061244;28;20208;-80
2022/04/26 05:07:31;;;;;;;24.30;10.87;;;7.50;1.00;;;;;;5063661;28;20448;-81
2022/04/26 05:09:58;;;;;;;16.40;10.37;;;7.60;1.00;;;;;;5061247;28;20514;-79
2022/04/26 05:12:24;;;;;;;21.27;11.50;;;7.70;1.00;;;;;;5065449;28;20459;-81
2022/04/26 05:14:51;;;;;;;20.17;11.67;;;7.70;99.90;;;;;;5068815;28;20481;-79
2022/04/26 05:17:19;;;;;;;17.23;12.40;;;7.70;1.00;;;;;;5063293;28;20485;-81
2022/04/26 05:19:45;;;;;;;15.00;10.60;;;7.70;1.00;;;;;;5062389;28;20504;-79
2022/04/26 05:22:12;;;;;;;15.40;10.33;;;7.80;1.00;;;;;;5067617;28;20472;-82
2022/04/26 05:24:53;;;;;;;16.50;11.13;;;7.80;99.90;;;;;;5063921;28;20453;-86
2022/04/26 05:27:24;;;;;;;18.60;10.47;;;7.70;99.90;;;;;;5070089;28;20905;-84
2022/04/26 05:29:54;;;;;;;21.47;11.40;;;7.80;99.90;;;;;;5074483;28;20465;-84
2022/04/26 05:32:29;;;;;;;20.63;11.80;;;7.80;99.90;;;;;;5080321;28;20456;-84
2022/04/26 05:34:58;;;;;;;16.67;11.23;;;7.90;98.60;;;;;;5079835;28;20552;-86
2022/04/26 05:37:25;;;;;;;16.20;10.10;;;;;;;;;;5069475;28;20461;-86
2022/04/26 05:39:51;;;;;;;13.83;10.17;;;8.00;1.00;;;;;;5069792;28;20495;-85
2022/04/26 05:42:18;;;;;;;18.40;10.60;;;8.10;1.00;;;;;;5069538;28;20456;-86
2022/04/26 05:44:45;;;;;;;15.37;9.50;;;8.20;99.90;;;;;;5067331;28;20421;-84
2022/04/26 05:47:11;;;;;;;14.67;9.93;;;8.20;1.00;;;;;;5069895;28;20420;-85
2022/04/26 05:49:39;;;;;;;14.30;8.70;;;8.30;1.00;;;;;;5068614;28;20461;-84
2022/04/26 05:52:07;;;;;;;18.23;9.70;;;8.30;1.00;;;;;;5072207;28;20452;-84
2022/04/26 05:54:33;;;;;;;14.47;10.47;;;8.20;99.90;;;;;;5072321;28;20492;-83
2022/04/26 05:57:00;;;;;;;12.30;9.50;;;8.30;1.00;;;;;;5070981;28;20445;-82
2022/04/26 05:59:27;;;;;;;12.40;9.80;;;8.30;99.90;;;;;;5066965;28;20538;-83
2022/04/26 06:01:54;;;;;;;12.67;9.07;;;8.40;99.90;;;;;;5066667;28;20457;-82
2022/04/26 06:04:21;;;;;;;14.03;9.40;;;8.40;1.00;;;;;;5066624;28;20444;-82
2022/04/26 06:06:49;;;;;;;21.97;10.03;;;8.40;1.00;;;;;;5065508;28;20517;-85
2022/04/26 06:09:16;;;;;;;14.33;9.53;;;8.40;99.90;;;;;;5071180;28;20487;-82
2022/04/26 06:11:42;;;;;;;16.40;10.00;;;8.50;99.90;;;;;;5069223;28;20484;-79
2022/04/26 06:14:09;;;;;;;16.13;9.47;;;8.60;99.90;;;;;;5067577;28;20473;-78
2022/04/26 06:16:36;;;;;;;14.37;8.63;;;8.70;99.90;;;;;;5063660;28;20940;-77
2022/04/26 06:19:03;;;;;;;12.07;8.73;;;8.80;1.00;;;;;;5058494;28;20781;-80
2022/04/26 06:21:30;;;;;;;11.53;7.90;;;8.80;1.00;;;;;;5060904;28;20956;-80
2022/04/26 06:23:57;;;;;;;6.90;5.80;;;9.00;99.90;;;;;;5065684;28;20446;-79
2022/04/26 06:26:24;;;;;;;11.50;6.90;;;8.90;99.90;;;;;;5066282;28;20889;-77
2022/04/26 06:28:51;;;;;;;8.30;6.37;;;9.10;99.90;;;;;;5070742;28;20452;-77
2022/04/26 06:31:17;;;;;;;15.70;10.40;;;8.90;84.90;;;;;;5075114;28;20464;-77
2022/04/26 06:33:44;;;;;;;11.97;8.13;;;9.00;58.10;;;;;;5069383;28;20482;-77
2022/04/26 06:36:11;;;;;;;12.43;7.43;;;9.10;1.00;;;;;;5070663;28;20445;-77
2022/04/26 06:38:38;;;;;;;12.93;6.47;;;9.20;1.00;;;;;;5069076;28;20400;-77
2022/04/26 06:41:06;;;;;;;8.53;7.03;;;9.10;99.90;;;;;;5063287;28;20495;-78
2022/04/26 06:43:34;;;;;;;13.17;8.23;;;9.30;1.00;;;;;;5057393;28;20487;-77
2022/04/26 06:46:00;;;;;;;9.57;7.60;;;9.50;1.00;;;;;;5057161;28;20552;-77
2022/04/26 06:48:27;;;;;;;8.37;6.17;;;9.90;99.90;;;;;;5057382;28;20847;-77
2022/04/26 06:50:55;;;;;;;8.40;6.03;;;9.60;94.80;;;;;;5054932;28;20896;-78
2022/04/26 06:53:21;;;;;;;6.97;5.53;;;9.70;99.90;;;;;;5054845;28;20452;-77
2022/04/26 06:55:48;;;;;;;14.23;5.97;;;9.80;1.00;;;;;;5054019;28;20416;-78
2022/04/26 06:58:16;;;;;;;15.00;6.60;;;10.00;1.00;;;;;;5054705;28;20485;-78
2022/04/26 07:00:43;;;;;;;7.10;5.40;;;10.20;1.00;;;;;;5053800;28;20812;-78
2022/04/26 07:03:09;;;;;;;7.00;4.80;;;10.30;1.00;;;;;;5054272;28;20449;-78
2022/04/26 07:05:36;;;;;;;6.00;4.97;;;10.30;1.00;;;;;;5055679;28;20513;-77
2022/04/26 07:08:03;;;;;;;5.60;4.50;;;10.30;1.00;;;;;;5055139;28;20446;-78
2022/04/26 07:10:30;;;;;;;6.67;4.50;;;10.30;1.00;;;;;;5055716;28;20876;-78
2022/04/26 07:12:56;;;;;;;4.30;3.90;;;10.50;1.00;;;;;;5054656;28;20492;-78
2022/04/26 07:15:26;;;;;;;8.20;6.03;;;10.60;1.00;;;;;;5055668;28;20863;-78
2022/04/26 07:17:52;;;;;;;4.57;3.97;;;10.60;1.00;;;;;;5060497;28;20441;-78
2022/04/26 07:20:19;;;;;;;5.17;4.47;;;10.70;1.00;;;;;;5061939;28;20979;-77
2022/04/26 07:22:45;;;;;;;3.73;3.43;;;10.70;1.00;;;;;;5056979;28;20911;-77
2022/04/26 07:25:12;;;;;;;5.53;3.20;;;10.70;1.00;;;;;;5056574;28;20449;-77
2022/04/26 07:27:40;;;;;;;3.43;3.17;;;10.70;1.00;;;;;;5057306;28;20484;-77
2022/04/26 07:30:08;;;;;;;3.70;3.07;;;10.80;1.00;;;;;;5055337;28;20465;-78
2022/04/26 07:35:20;;;;;;;3.03;2.73;;;10.90;99.90;;;;;;5055385;28;20826;-78
2022/04/26 07:37:47;;;;;;;5.73;2.97;;;11.00;99.90;;;;;;5055891;28;20820;-78
2022/04/26 07:40:13;;;;;;;3.73;3.33;;;11.00;99.90;;;;;;5055856;28;20509;-78
2022/04/26 07:42:40;;;;;;;4.33;3.60;;;11.10;99.90;;;;;;5057198;28;20493;-78
2022/04/26 07:45:09;;;;;;;5.30;3.87;;;11.10;99.90;;;;;;5056320;28;20441;-79
2022/04/26 07:47:37;;;;;;;2.80;2.60;;;11.20;99.90;;;;;;5053855;28;20428;-78
2022/04/26 07:50:05;;;;;;;4.03;3.70;;;11.20;99.90;;;;;;5057793;28;20466;-76
2022/04/26 07:52:32;;;;;;;2.60;2.40;;;11.30;99.90;;;;;;5057574;28;20457;-78
2022/04/26 07:54:59;;;;;;;6.93;3.70;;;11.40;99.90;;;;;;5059859;28;20547;-78
2022/04/26 07:57:26;;;;;;;4.27;3.80;;;11.50;99.90;;;;;;5060159;28;20460;-77
2022/04/26 07:59:53;;;;;;;3.43;2.30;;;11.70;99.90;;;;;;5061579;28;20465;-77
2022/04/26 08:02:21;;;;;;;1.70;1.60;;;11.70;99.90;;;;;;5061474;28;20469;-78
2022/04/26 08:04:49;;;;;;;2.30;2.10;;;11.80;99.90;;;;;;5060473;28;20865;-77
2022/04/26 08:07:16;;;;;;;2.30;2.10;;;11.90;99.90;;;;;;5061059;28;20476;-77
2022/04/26 08:09:43;;;;;;;5.20;2.40;;;12.00;99.90;;;;;;5057900;28;20968;-78
2022/04/26 08:12:10;;;;;;;3.63;2.07;;;12.10;99.90;;;;;;5058994;28;20548;-79
2022/04/26 08:14:36;;;;;;;2.13;1.90;;;12.00;99.90;;;;;;5061825;28;20482;-78
2022/04/26 08:17:04;;;;;;;5.20;3.70;;;11.90;99.90;;;;;;5060395;28;20480;-79
2022/04/26 08:19:30;;;;;;;2.20;2.00;;;11.90;99.90;;;;;;5061699;28;20469;-77
2022/04/26 08:21:59;;;;;;;2.50;1.90;;;12.00;99.90;;;;;;5060462;28;20449;-78
2022/04/26 08:27:26;;;;;;;4.20;2.60;;;12.30;99.90;;;;;;5057844;28;20468;-77
2022/04/26 08:29:53;;;;;;;9.90;8.23;;;12.40;99.90;;;;;;5057750;28;20466;-78
2022/04/26 08:32:20;;;;;;;2.93;2.70;;;12.60;99.90;;;;;;5058183;28;20915;-78
2022/04/26 08:34:47;;;;;;;2.67;2.47;;;12.50;99.90;;;;;;5057697;28;20469;-78
2022/04/26 08:37:15;;;;;;;4.20;3.80;;;12.70;99.90;;;;;;5059632;28;20481;-77
2022/04/26 08:39:41;;;;;;;2.70;2.50;;;12.70;99.90;;;;;;5057351;28;21001;-77
2022/04/26 08:42:08;;;;;;;1.90;1.70;;;12.50;99.90;;;;;;5056818;28;20445;-78
2022/04/26 08:44:35;;;;;;;2.23;1.97;;;12.40;99.90;;;;;;5056300;28;20975;-77
2022/04/26 08:52:48;;;;;;;5.93;2.57;;;12.70;99.90;;;;;;5057392;28;20401;-77
2022/04/26 08:55:15;;;;;;;2.60;2.20;;;12.80;99.90;;;;;;5056694;28;20457;-77
2022/04/26 08:57:42;;;;;;;2.60;2.40;;;12.70;99.90;;;;;;5057013;28;20477;-78
2022/04/26 09:00:11;;;;;;;2.50;2.30;;;12.70;99.90;;;;;;5057857;28;20481;-78
2022/04/26 09:02:38;;;;;;;3.33;1.93;;;12.80;99.90;;;;;;5058878;28;20457;-77
2022/04/26 09:05:11;;;;;;;3.33;2.33;;;12.60;99.90;;;;;;5059505;28;20441;-77
2022/04/26 09:07:38;;;;;;;2.20;2.00;;;12.70;99.90;;;;;;5059658;28;20480;-77
2022/04/26 09:10:10;;;;;;;2.00;1.90;;;12.80;99.90;;;;;;5058723;28;20563;-77
2022/04/26 09:13:01;;;;;;;4.70;3.77;;;12.80;99.90;;;;;;5057343;28;20438;-77
2022/04/26 09:15:38;;;;;;;2.80;2.60;;;12.90;99.90;;;;;;5056507;28;20509;-77
2022/04/26 09:18:21;;;;;;;2.53;2.33;;;13.20;99.90;;;;;;5056817;28;20429;-77
2022/04/26 09:20:49;;;;;;;2.90;2.70;;;13.40;99.90;;;;;;5056670;28;20469;-77
2022/04/26 09:23:17;;;;;;;3.20;2.87;;;13.30;99.90;;;;;;5057270;28;20473;-77
2022/04/26 09:25:46;;;;;;;5.13;3.20;;;13.30;99.90;;;;;;5056494;28;20446;-77
2022/04/26 09:28:27;;;;;;;3.47;2.43;;;13.20;99.90;;;;;;5056806;28;20469;-77
2022/04/26 09:30:54;;;;;;;3.60;3.30;;;13.30;99.90;;;;;;5055616;28;20547;-77
2022/04/26 09:33:31;;;;;;;5.13;3.37;;;13.50;99.90;;;;;;5056695;28;20836;-77
2022/04/26 09:36:02;;;;;;;3.13;2.90;;;13.70;99.90;;;;;;5058537;28;20481;-77
2022/04/26 09:38:32;;;;;;;3.57;3.17;;;13.70;99.90;;;;;;5062257;28;20471;-77
2022/04/26 09:41:01;;;;;;;2.93;2.73;;;13.60;99.90;;;;;;5073320;28;20537;-77
2022/04/26 09:43:29;;;;;;;4.43;3.60;;;13.80;99.90;;;;;;5076378;28;20440;-77
2022/04/26 09:45:57;;;;;;;3.97;3.30;;;14.00;99.90;;;;;;5075233;28;20422;-77
2022/04/26 09:48:28;;;;;;;5.13;3.07;;;13.80;99.90;;;;;;5076523;28;20521;-77
2022/04/26 09:50:56;;;;;;;3.40;3.10;;;13.70;99.90;;;;;;5076022;28;20461;-77
2022/04/26 09:53:22;;;;;;;8.03;3.30;;;13.70;99.90;;;;;;5063121;28;20449;-77
2022/04/26 09:55:49;;;;;;;6.87;3.43;;;14.00;99.90;;;;;;5062412;28;20506;-76
2022/04/26 09:58:19;;;;;;;5.20;3.40;;;14.20;99.90;;;;;;5057409;28;20474;-76
2022/04/26 10:00:49;;;;;;;4.03;3.23;;;14.50;99.90;;;;;;5057306;28;20523;-76
2022/04/26 10:03:17;;;;;;;12.60;8.00;;;14.70;99.90;;;;;;5055786;28;20450;-78
2022/04/26 10:05:48;;;;;;;3.00;2.80;;;14.50;99.90;;;;;;5055777;28;20516;-78
2022/04/26 10:08:17;;;;;;;7.50;3.90;;;14.50;99.90;;;;;;5057492;28;20812;-78
2022/04/26 10:10:44;;;;;;;5.07;3.90;;;14.40;99.90;;;;;;5057414;28;20473;-78
2022/04/26 10:15:58;;;;;;;4.27;3.97;;;14.30;99.90;;;;;;5057225;28;20456;-78
2022/04/26 10:18:34;;;;;;;4.97;3.60;;;14.40;99.90;;;;;;5057616;28;20457;-77
2022/04/26 10:21:01;;;;;;;6.70;3.73;;;14.20;99.90;;;;;;5056715;28;20504;-77
2022/04/26 10:23:28;;;;;;;4.03;3.73;;;14.30;99.90;;;;;;5056216;28;20445;-77
2022/04/26 10:26:24;;;;;;;6.50;3.37;;;14.50;99.90;;;;;;5055077;28;20851;-77
2022/04/26 10:28:53;;;;;;;3.80;3.40;;;15.10;99.90;;;;;;5058381;28;20466;-78
2022/04/26 10:31:35;;;;;;;4.67;3.07;;;14.70;99.90;;;;;;5055204;28;20482;-77
2022/04/26 10:34:03;;;;;;;5.13;3.50;;;14.90;99.90;;;;;;5055043;28;20422;-77
2022/04/26 10:36:36;;;;;;;3.37;3.07;;;14.80;99.90;;;;;;5054929;28;20514;-78
2022/04/26 10:41:35;;;;;;;3.07;2.77;;;15.10;99.90;;;;;;5115132;28;20468;-79
2022/04/26 10:44:38;;;;;;;4.00;3.60;;;15.10;99.90;;;;;;5117859;28;20489;-78
2022/04/26 10:47:36;;;;;;;3.80;3.10;;;14.80;99.90;;;;;;5117392;28;20839;-78
2022/04/26 10:50:06;;;;;;;7.43;4.37;;;15.10;99.90;;;;;;5122038;28;20465;-77
2022/04/26 10:52:48;;;;;;;3.80;3.43;;;15.20;99.90;;;;;;5120936;28;20441;-77
2022/04/26 10:55:28;;;;;;;4.07;3.67;;;14.80;99.90;;;;;;5126556;28;20501;-77
2022/04/26 10:57:57;;;;;;;3.00;2.80;;;14.80;99.90;;;;;;5126456;28;20429;-77
2022/04/26 11:00:32;;;;;;;3.97;3.10;;;15.10;99.90;;;;;;5127179;28;20480;-77
2022/04/26 11:03:06;;;;;;;3.90;3.10;;;15.10;99.90;;;;;;5119303;28;20479;-77
2022/04/26 11:05:35;;;;;;;5.53;3.10;;;15.20;99.90;;;;;;5116177;28;20422;-77
2022/04/26 11:08:05;;;;;;;3.20;2.90;;;15.30;99.90;;;;;;5117078;28;20450;-78
2022/04/26 11:11:00;;;;;;;3.03;2.60;;;15.30;99.90;;;;;;5117566;28;20474;-78
2022/04/26 11:13:20;;;;;;;3.23;2.73;;;15.40;99.90;;;;;;5119710;28;20820;-78
2022/04/26 11:15:47;;;;;;;3.30;3.10;;;15.20;99.90;;;;;;5116690;28;20568;-75
2022/04/26 11:18:22;;;;;;;3.10;2.80;;;15.20;99.90;;;;;;5115598;28;20811;-78
2022/04/26 11:20:49;;;;;;;4.00;3.00;;;15.40;99.90;;;;;;5120477;28;20477;-79
2022/04/26 11:29:20;;;;;;;4.10;3.70;;;15.50;99.90;;;;;;5113994;28;20406;-75
2022/04/26 11:31:47;;;;;;;3.00;2.80;;;15.50;99.90;;;;;;5127371;28;20486;-78
2022/04/26 11:34:15;;;;;;;3.37;3.10;;;15.40;99.90;;;;;;5128731;28;20442;-78
2022/04/26 11:36:41;;;;;;;2.57;2.37;;;15.60;99.90;;;;;;5127323;28;20482;-78
2022/04/26 11:39:08;;;;;;;3.63;3.33;;;15.30;99.90;;;;;;5126317;28;20453;-78
2022/04/26 11:41:35;;;;;;;5.53;3.90;;;15.30;99.90;;;;;;5116811;28;20485;-77
2022/04/26 11:44:05;;;;;;;3.00;2.80;;;15.20;99.90;;;;;;5115983;28;20939;-77
2022/04/26 11:46:33;;;;;;;2.77;2.57;;;15.10;99.90;;;;;;5116143;28;20453;-78
2022/04/26 11:49:00;;;;;;;3.63;3.33;;;15.60;99.90;;;;;;5117335;28;20477;-78
2022/04/26 11:51:28;;;;;;;4.57;3.80;;;15.50;99.90;;;;;;5115647;28;20916;-78
2022/04/26 11:53:55;;;;;;;5.00;3.30;;;15.90;99.90;;;;;;5116533;28;20444;-78
2022/04/26 11:56:22;;;;;;;3.93;3.60;;;15.70;99.90;;;;;;5116377;28;20478;-77
2022/04/26 11:58:48;;;;;;;3.80;3.40;;;15.40;99.90;;;;;;5116411;28;20451;-78
2022/04/26 12:01:16;;;;;;;3.80;3.60;;;15.60;99.90;;;;;;5115337;28;21020;-77
2022/04/26 12:03:46;;;;;;;4.70;4.30;;;15.60;99.90;;;;;;5113529;28;20485;-79
2022/04/26 12:06:15;;;;;;;7.50;3.53;;;15.80;99.90;;;;;;5114049;28;20469;-79
2022/04/26 12:08:45;;;;;;;2.90;2.50;;;15.80;99.90;;;;;;5114564;28;20542;-78
2022/04/26 12:11:16;;;;;;;4.90;3.03;;;16.10;99.90;;;;;;5117084;28;20555;-77
2022/04/26 12:13:43;;;;;;;3.60;3.30;;;16.30;99.90;;;;;;5116049;28;20525;-78
2022/04/26 12:16:20;;;;;;;3.00;2.80;;;16.50;99.90;;;;;;5118799;28;20901;-78
2022/04/26 12:18:54;;;;;;;4.83;3.43;;;16.40;99.90;;;;;;5117033;28;20481;-78
2022/04/26 12:21:22;;;;;;;3.53;2.77;;;16.60;99.90;;;;;;5115991;28;20497;-78
2022/04/26 12:24:10;;;;;;;3.37;2.97;;;16.80;99.90;;;;;;5114189;28;20470;-78
2022/04/26 12:26:37;;;;;;;8.57;4.90;;;17.10;99.90;;;;;;5114234;28;20837;-77
2022/04/26 12:29:12;;;;;;;6.80;3.10;;;17.00;99.90;;;;;;5115819;28;20530;-78
2022/04/26 12:31:44;;;;;;;7.57;3.60;;;17.10;99.90;;;;;;5115065;28;20457;-78
2022/04/26 12:34:16;;;;;;;4.07;3.27;;;17.20;99.90;;;;;;5115283;28;20459;-78
2022/04/26 12:36:53;;;;;;;5.70;2.83;;;17.10;99.90;;;;;;5116382;28;20944;-78
2022/04/26 12:39:22;;;;;;;3.10;2.87;;;16.80;99.90;;;;;;5116753;28;20469;-77
2022/04/26 12:41:50;;;;;;;4.10;2.97;;;16.70;99.90;;;;;;5121911;28;20435;-77
2022/04/26 12:44:17;;;;;;;7.27;3.47;;;16.60;99.90;;;;;;5121747;28;20443;-78
2022/04/26 12:50:27;;;;;;;3.03;2.70;;;16.70;99.90;;;;;;5123945;28;20454;-77
2022/04/26 12:52:37;;;;;;;5.73;4.83;;;16.30;99.90;;;;;;5123753;28;20495;-78
2022/04/26 12:55:05;;;;;;;4.00;3.27;;;16.30;99.90;;;;;;5124166;28;20504;-78
2022/04/26 12:57:45;;;;;;;2.60;2.50;;;15.80;99.90;;;;;;5120094;28;20514;-78
2022/04/26 13:00:13;;;;;;;3.70;3.00;;;15.80;99.90;;;;;;5119140;28;20463;-79
2022/04/26 13:02:39;;;;;;;3.40;2.60;;;15.60;99.90;;;;;;5118854;28;20516;-78
2022/04/26 13:05:07;;;;;;;3.10;2.87;;;15.50;99.90;;;;;;5119775;28;20941;-78
2022/04/26 13:07:33;;;;;;;4.23;3.47;;;15.60;99.90;;;;;;5120016;28;20869;-78
2022/04/26 13:10:00;;;;;;;3.13;2.87;;;15.70;99.90;;;;;;5120180;28;20506;-78
2022/04/26 13:12:28;;;;;;;3.10;2.80;;;15.80;99.90;;;;;;5120280;28;20473;-77
2022/04/26 13:14:54;;;;;;;6.10;3.27;;;15.80;99.90;;;;;;5120530;28;20447;-77
2022/04/26 13:17:21;;;;;;;2.47;2.20;;;15.70;99.90;;;;;;5119740;28;20573;-77
2022/04/26 13:19:47;;;;;;;4.33;2.97;;;15.60;99.90;;;;;;5118839;28;20463;-78
2022/04/26 13:22:15;;;;;;;4.10;3.80;;;15.90;99.90;;;;;;5119408;28;20450;-78
2022/04/26 13:24:41;;;;;;;2.97;2.77;;;16.00;99.90;;;;;;5119357;28;20461;-78
2022/04/26 13:27:08;;;;;;;3.50;3.20;;;15.90;99.90;;;;;;5121035;28;20719;-78
2022/04/26 13:29:36;;;;;;;3.60;3.30;;;16.10;99.90;;;;;;5121943;28;20531;-77
2022/04/26 13:32:03;;;;;;;9.03;3.27;;;16.00;99.90;;;;;;5121501;28;20488;-79
2022/04/26 13:34:30;;;;;;;3.93;3.63;;;15.90;99.90;;;;;;5125910;28;20450;-77
2022/04/26 13:36:57;;;;;;;3.87;3.07;;;15.80;99.90;;;;;;5120106;28;20616;-78
2022/04/26 13:39:23;;;;;;;4.50;4.10;;;15.80;99.90;;;;;;5126770;28;20465;-78
2022/04/26 13:41:51;;;;;;;3.67;3.37;;;16.00;99.90;;;;;;5127293;28;20433;-78
2022/04/26 13:44:19;;;;;;;4.13;2.93;;;16.20;99.90;;;;;;5118693;28;20961;-80
2022/04/26 13:46:47;;;;;;;4.40;3.33;;;16.40;99.90;;;;;;5116822;28;20447;-78
2022/04/26 13:49:14;;;;;;;4.10;3.80;;;17.00;99.90;;;;;;5120995;28;20450;-78
2022/04/26 13:51:40;;;;;;;3.80;3.17;;;16.80;99.90;;;;;;5121957;28;20536;-79
2022/04/26 13:54:08;;;;;;;4.00;3.60;;;16.80;99.90;;;;;;5123865;28;20466;-78
2022/04/26 13:56:34;;;;;;;4.03;3.43;;;17.10;99.90;;;;;;5126504;28;20500;-78
2022/04/26 13:59:01;;;;;;;5.80;4.60;;;17.40;99.90;;;;;;5121412;28;20451;-78
2022/04/26 14:01:27;;;;;;;3.73;2.77;;;17.50;99.90;;;;;;5127469;28;20454;-77
2022/04/26 14:03:55;;;;;;;6.47;3.80;;;17.60;99.90;;;;;;5127834;28;20439;-78
2022/04/26 14:06:22;;;;;;;3.40;3.10;;;17.60;99.90;;;;;;5128206;28;20447;-78
2022/04/26 14:08:49;;;;;;;4.50;3.10;;;17.70;99.90;;;;;;5129958;28;20515;-79
2022/04/26 14:11:16;;;;;;;4.87;3.20;;;17.80;99.90;;;;;;5120459;28;20505;-78
2022/04/26 14:21:57;;;;;;;5.00;3.60;;;17.10;99.90;;;;;;5127185;28;20453;-78
2022/04/26 14:24:23;;;;;;;6.50;2.63;;;17.00;99.90;;;;;;5127803;28;20527;-78
2022/04/26 14:26:51;;;;;;;3.43;2.40;;;17.00;99.90;;;;;;5124618;28;20454;-77
2022/04/26 14:29:17;;;;;;;3.00;2.80;;;17.70;99.90;;;;;;5118514;28;20474;-78
2022/04/26 14:31:44;;;;;;;5.10;3.10;;;17.50;99.90;;;;;;5118245;28;20447;-79
2022/04/26 14:34:14;;;;;;;3.50;3.10;;;17.60;99.90;;;;;;5118553;28;20482;-80
2022/04/26 14:36:41;;;;;;;4.70;2.97;;;17.70;99.90;;;;;;5122731;28;20466;-80
2022/04/26 14:39:08;;;;;;;3.80;3.50;;;17.60;99.90;;;;;;5122316;28;20447;-79
2022/04/26 14:41:35;;;;;;;9.40;3.63;;;17.70;99.90;;;;;;5117987;28;20443;-78
2022/04/26 14:44:01;;;;;;;3.40;2.60;;;17.90;99.90;;;;;;5116932;28;20431;-77
2022/04/26 14:46:28;;;;;;;4.43;3.27;;;17.60;99.90;;;;;;5117605;28;20441;-78
2022/04/26 14:48:55;;;;;;;3.50;3.20;;;17.40;99.90;;;;;;5116681;28;20597;-79
2022/04/26 14:51:23;;;;;;;5.40;2.93;;;17.60;99.90;;;;;;5117028;28;20847;-78
2022/04/26 14:53:50;;;;;;;2.70;2.50;;;17.60;99.90;;;;;;5117712;28;20466;-78
2022/04/26 14:56:16;;;;;;;3.50;3.20;;;17.70;99.90;;;;;;5118714;28;20531;-78
2022/04/26 14:58:43;;;;;;;3.43;2.60;;;17.80;99.90;;;;;;5122917;28;20439;-78
2022/04/26 15:01:10;;;;;;;3.90;2.77;;;17.80;99.90;;;;;;5123884;28;20482;-78
2022/04/26 15:03:37;;;;;;;2.57;2.37;;;17.80;99.90;;;;;;5118296;28;20550;-78
2022/04/26 15:06:03;;;;;;;3.50;3.13;;;17.80;99.90;;;;;;5114960;28;20477;-78
2022/04/26 15:11:15;;;;;;;2.77;2.57;;;17.80;99.90;;;;;;5115335;28;20576;-77
2022/04/26 15:16:38;;;;;;;3.27;2.70;;;17.70;99.90;;;;;;5119759;28;20495;-77
2022/04/26 15:19:05;;;;;;;3.13;2.80;;;18.00;99.90;;;;;;5116093;28;20751;-78
2022/04/26 15:21:31;;;;;;;4.57;3.87;;;17.60;99.90;;;;;;5115051;28;20481;-78
2022/04/26 15:24:00;;;;;;;4.40;3.10;;;17.50;99.90;;;;;;5121536;28;20517;-78
2022/04/26 15:26:27;;;;;;;3.23;2.80;;;17.50;99.90;;;;;;5122652;28;20430;-77
2022/04/26 15:28:53;;;;;;;2.70;2.50;;;17.70;99.90;;;;;;5120835;28;20499;-79
2022/04/26 15:31:20;;;;;;;2.23;2.13;;;18.00;99.90;;;;;;5121651;28;20498;-78
2022/04/26 15:33:48;;;;;;;8.33;2.60;;;18.90;99.90;;;;;;5120367;28;20479;-78
2022/04/26 15:36:15;;;;;;;5.90;2.70;;;20.80;99.90;;;;;;5121568;28;20455;-78
2022/04/26 15:38:42;;;;;;;3.83;2.17;;;21.80;99.90;;;;;;5116626;28;20489;-79
2022/04/26 15:41:10;;;;;;;4.03;3.00;;;21.40;99.90;;;;;;5114321;28;20825;-78
2022/04/26 15:43:38;;;;;;;3.20;2.37;;;19.40;99.90;;;;;;5117044;28;20466;-78
2022/04/26 15:46:08;;;;;;;5.63;2.87;;;18.90;99.90;;;;;;5115933;28;20478;-77
2022/04/26 15:48:37;;;;;;;6.20;3.37;;;18.70;99.90;;;;;;5115137;28;20449;-78
2022/04/26 15:51:04;;;;;;;5.17;4.67;;;17.70;99.90;;;;;;5115864;28;20898;-78
2022/04/26 15:53:31;;;;;;;3.17;2.73;;;17.10;99.90;;;;;;5115361;28;20945;-77
2022/04/26 15:55:57;;;;;;;4.53;4.13;;;16.80;99.90;;;;;;5115423;28;20478;-78
2022/04/26 15:58:28;;;;;;;3.27;2.97;;;16.60;99.90;;;;;;5117823;28;20570;-78
2022/04/26 16:00:55;;;;;;;4.43;2.90;;;16.50;99.90;;;;;;5114991;28;20516;-77
2022/04/26 16:03:21;;;;;;;2.87;2.67;;;16.70;99.90;;;;;;5114494;28;20975;-78
2022/04/26 16:05:48;;;;;;;4.97;2.87;;;16.80;99.90;;;;;;5115408;28;20788;-78
2022/04/26 16:08:15;;;;;;;3.67;3.37;;;16.80;99.90;;;;;;5114897;28;20439;-78
2022/04/26 16:21:44;;;;;;;19.47;6.13;;;16.70;99.90;;;;;;5119348;28;20932;-79
2022/04/26 16:24:10;;;;;;;4.70;2.83;;;16.70;99.90;;;;;;5116890;28;20473;-77
2022/04/26 16:26:37;;;;;;;8.30;2.60;;;16.60;99.90;;;;;;5120280;28;20201;-78
2022/04/26 16:29:07;;;;;;;9.27;3.23;;;16.40;99.90;;;;;;5125199;28;20451;-77
2022/04/26 16:31:34;;;;;;;3.67;2.77;;;16.40;99.90;;;;;;5127541;28;20522;-78
2022/04/26 16:34:03;;;;;;;5.07;2.33;;;16.60;99.90;;;;;;5124713;28;20454;-77
2022/04/26 16:36:29;;;;;;;8.00;4.17;;;16.60;99.90;;;;;;5124836;28;20489;-78
2022/04/26 16:38:59;;;;;;;3.17;2.60;;;16.30;99.90;;;;;;5120333;28;20503;-78
2022/04/26 16:41:26;;;;;;;5.07;2.70;;;16.30;99.90;;;;;;5119807;28;20443;-78
2022/04/26 16:43:53;;;;;;;2.60;2.40;;;16.20;99.90;;;;;;5124911;28;20303;-80
2022/04/26 16:46:22;;;;;;;3.93;2.97;;;16.40;99.90;;;;;;5121541;28;20478;-77
2022/04/26 16:48:49;;;;;;;2.93;2.63;;;16.70;99.90;;;;;;5119509;28;20552;-78
2022/04/26 16:51:16;;;;;;;4.90;2.60;;;16.80;99.90;;;;;;5119454;28;20583;-78
2022/04/26 16:53:44;;;;;;;3.03;2.50;;;16.90;99.90;;;;;;5119717;28;20451;-80
2022/04/26 16:56:10;;;;;;;6.50;2.73;;;16.90;99.90;;;;;;5127786;28;20795;-78
2022/04/26 16:58:38;;;;;;;6.43;2.50;;;16.80;99.90;;;;;;5127903;28;20482;-77
2022/04/26 17:01:05;;;;;;;4.40;3.23;;;16.70;99.90;;;;;;5125775;28;20473;-78
2022/04/26 17:03:33;;;;;;;5.40;4.90;;;16.50;99.90;;;;;;5127573;28;20447;-78
2022/04/26 17:06:00;;;;;;;3.03;2.73;;;16.50;99.90;;;;;;5125039;28;20808;-77
2022/04/26 17:08:26;;;;;;;2.60;2.23;;;16.40;99.90;;;;;;5102660;28;20443;-78
2022/04/26 17:11:41;;;;;;;3.00;2.60;;;16.40;99.90;;;;;;5120968;28;20484;-78
2022/04/26 17:13:40;;;;;;;9.67;2.43;;;16.40;99.90;;;;;;5121896;28;20534;-78
2022/04/26 17:16:07;;;;;;;3.10;2.50;;;16.30;99.90;;;;;;5122859;28;20450;-78
2022/04/26 17:18:35;;;;;;;5.73;2.93;;;16.10;99.90;;;;;;5120654;28;20486;-78
2022/04/26 17:21:02;;;;;;;5.53;2.63;;;16.10;99.90;;;;;;5121080;28;20463;-78
2022/04/26 17:23:29;;;;;;;3.40;2.60;;;16.20;99.90;;;;;;5118943;28;20450;-78